Terminal Aerodrome Forecast
Issued by NWS

Home | Current Version | Previous Version | Graphics & Text | Print | Product List | Glossary On
Versions: 1 2 3 4 5 6 7 8 9 10 11 12 13 14 15 16 17 18 19
000
FTUS43 KICT 180931 AAB
TAFCNU
TAF AMD
KCNU 180931Z 1810/1906 11007KT P6SM SCT015
     FM181100 13007KT 6SM BR VCSH BKN015 OVC035
     FM181400 13007KT P6SM SCT050=

USA.gov is the U.S. government's official web portal to all federal, state and local government web resources and services.